Time,TemperatureF,DewpointF,PressureIn,WindDirection,WindDirectionDegrees,WindSpeedMPH,WindSpeedGustMPH,Humidity,HourlyPrecipIn,Conditions,Clouds,dailyrainin,SoftwareType,DateUTC
2013-02-01 00:00:00,20.8,11.3,29.61,WNW,302,11.0,28.0,66,0.00,,,0.00,meteohub,2013-02-01 05:00:00,
2013-02-01 00:01:00,20.8,10.9,29.61,West,281,20.0,26.0,65,0.00,,,0.00,meteohub,2013-02-01 05:01:00,
2013-02-01 00:03:00,21.0,11.1,29.61,West,267,9.0,26.0,65,0.00,,,0.00,meteohub,2013-02-01 05:03:00,
2013-02-01 00:08:00,21.0,10.8,29.61,West,270,10.0,28.0,64,0.00,,,0.00,meteohub,2013-02-01 05:08:00,
2013-02-01 00:13:00,20.8,10.6,29.61,WNW,290,16.0,28.0,64,0.00,,,0.00,meteohub,2013-02-01 05:13:00,
2013-02-01 00:18:00,21.0,10.0,29.61,WSW,258,22.0,29.0,62,0.00,,,0.00,meteohub,2013-02-01 05:18:00,
2013-02-01 00:23:00,20.8,9.5,29.62,West,264,20.0,32.0,61,0.00,,,0.00,meteohub,2013-02-01 05:23:00,
2013-02-01 00:28:00,21.0,9.7,29.62,WNW,287,14.0,32.0,61,0.00,,,0.00,meteohub,2013-02-01 05:28:00,
2013-02-01 00:33:00,20.8,9.1,29.62,West,271,9.0,32.0,60,0.00,,,0.00,meteohub,2013-02-01 05:33:00,
2013-02-01 00:38:00,20.8,9.5,29.62,WSW,255,20.0,31.0,61,0.00,,,0.00,meteohub,2013-02-01 05:38:00,
2013-02-01 00:43:00,20.8,10.2,29.63,SW,236,11.0,31.0,63,0.00,,,0.00,meteohub,2013-02-01 05:43:00,
2013-02-01 00:48:00,20.8,10.9,29.63,SW,236,15.0,28.0,65,0.00,,,0.00,meteohub,2013-02-01 05:48:00,
2013-02-01 00:53:00,20.7,11.1,29.63,WSW,258,7.0,25.0,66,0.00,,,0.00,meteohub,2013-02-01 05:53:00,
2013-02-01 00:58:00,20.7,11.5,29.63,West,264,8.0,25.0,67,0.00,,,0.00,meteohub,2013-02-01 05:58:00,
2013-02-01 01:03:00,20.7,11.5,29.63,SW,223,13.0,25.0,67,0.00,,,0.00,meteohub,2013-02-01 06:03:00,
2013-02-01 01:08:00,20.7,11.1,29.63,WSW,252,6.0,25.0,66,0.00,,,0.00,meteohub,2013-02-01 06:08:00,
2013-02-01 01:13:00,20.7,10.4,29.63,West,259,15.0,25.0,64,0.00,,,0.00,meteohub,2013-02-01 06:13:00,
2013-02-01 01:18:00,20.7,10.8,29.64,West,264,8.0,28.0,65,0.00,,,0.00,meteohub,2013-02-01 06:18:00,
2013-02-01 01:23:00,20.5,10.9,29.64,WNW,293,11.0,28.0,66,0.00,,,0.00,meteohub,2013-02-01 06:23:00,
2013-02-01 01:28:00,20.5,11.3,29.64,West,280,10.0,25.0,67,0.00,,,0.00,meteohub,2013-02-01 06:28:00,
2013-02-01 01:33:00,20.3,11.5,29.64,WNW,289,16.0,25.0,68,0.00,,,0.00,meteohub,2013-02-01 06:33:00,
2013-02-01 01:38:00,19.9,12.4,29.65,WNW,283,17.0,22.0,72,0.00,,,0.00,meteohub,2013-02-01 06:38:00,
2013-02-01 01:43:00,19.8,13.1,29.65,West,275,6.0,22.0,75,0.00,,,0.00,meteohub,2013-02-01 06:43:00,
2013-02-01 01:48:00,19.6,13.6,29.65,NNW,327,11.0,22.0,77,0.00,,,0.00,meteohub,2013-02-01 06:48:00,
2013-02-01 01:53:00,19.2,13.5,29.65,West,263,10.0,20.0,78,0.00,,,0.00,meteohub,2013-02-01 06:53:00,
2013-02-01 01:58:00,18.9,13.6,29.65,West,275,8.0,19.0,80,0.00,,,0.00,meteohub,2013-02-01 06:58:00,
2013-02-01 02:03:00,18.7,13.8,29.66,West,267,7.0,19.0,81,0.00,,,0.00,meteohub,2013-02-01 07:03:00,
2013-02-01 02:08:00,18.5,14.0,29.66,WNW,293,6.0,17.0,82,0.00,,,0.00,meteohub,2013-02-01 07:08:00,
2013-02-01 02:13:00,18.3,14.0,29.66,West,279,13.0,16.0,83,0.00,,,0.00,meteohub,2013-02-01 07:13:00,
2013-02-01 02:19:00,18.3,14.4,29.66,West,280,6.0,16.0,84,0.00,,,0.00,meteohub,2013-02-01 07:19:00,
2013-02-01 02:24:00,18.1,14.2,29.66,WNW,298,8.0,17.0,84,0.00,,,0.00,meteohub,2013-02-01 07:24:00,
2013-02-01 02:29:00,18.1,14.2,29.67,West,270,6.0,17.0,84,0.00,,,0.00,meteohub,2013-02-01 07:29:00,
2013-02-01 02:34:00,18.0,14.2,29.67,West,273,9.0,18.0,85,0.00,,,0.00,meteohub,2013-02-01 07:34:00,
2013-02-01 02:39:00,18.0,14.5,29.67,West,277,10.0,18.0,86,0.00,,,0.00,meteohub,2013-02-01 07:39:00,
2013-02-01 02:44:00,17.8,14.4,29.67,West,273,6.0,16.0,86,0.00,,,0.00,meteohub,2013-02-01 07:44:00,
2013-02-01 02:49:00,17.4,14.5,29.68,NW,324,13.0,16.0,88,0.00,,,0.00,meteohub,2013-02-01 07:49:00,
2013-02-01 02:54:00,17.2,14.4,29.67,West,267,13.0,16.0,88,0.00,,,0.00,meteohub,2013-02-01 07:54:00,
2013-02-01 02:59:00,17.1,14.4,29.68,West,279,12.0,16.0,89,0.00,,,0.00,meteohub,2013-02-01 07:59:00,
2013-02-01 03:04:00,17.1,14.7,29.68,West,273,13.0,21.0,90,0.00,,,0.00,meteohub,2013-02-01 08:04:00,
2013-02-01 03:09:00,16.9,14.5,29.68,NW,312,11.0,21.0,90,0.00,,,0.00,meteohub,2013-02-01 08:09:00,
2013-02-01 03:14:00,16.7,14.4,29.68,WNW,284,13.0,19.0,90,0.00,,,0.00,meteohub,2013-02-01 08:14:00,
2013-02-01 03:19:00,16.5,14.4,29.68,WNW,283,17.0,19.0,91,0.00,,,0.00,meteohub,2013-02-01 08:19:00,
2013-02-01 03:24:00,16.5,14.4,29.68,West,261,9.0,23.0,91,0.00,,,0.00,meteohub,2013-02-01 08:24:00,
2013-02-01 03:29:00,16.3,14.2,29.68,WSW,257,11.0,23.0,91,0.00,,,0.00,meteohub,2013-02-01 08:29:00,
2013-02-01 03:34:00,16.3,14.2,29.68,WNW,284,15.0,23.0,91,0.00,,,0.00,meteohub,2013-02-01 08:34:00,
2013-02-01 03:39:00,16.3,14.2,29.68,West,270,12.0,18.0,91,0.00,,,0.00,meteohub,2013-02-01 08:39:00,
2013-02-01 03:44:00,16.3,14.2,29.69,West,261,11.0,18.0,91,0.00,,,0.00,meteohub,2013-02-01 08:44:00,
2013-02-01 03:49:00,16.5,14.4,29.69,West,261,6.0,18.0,91,0.00,,,0.00,meteohub,2013-02-01 08:49:00,
2013-02-01 03:54:00,16.5,14.4,29.69,West,278,12.0,16.0,91,0.00,,,0.00,meteohub,2013-02-01 08:54:00,
2013-02-01 03:59:00,16.5,14.4,29.69,West,279,17.0,17.0,91,0.00,,,0.00,meteohub,2013-02-01 08:59:00,
2013-02-01 04:04:00,16.5,14.4,29.70,WNW,296,6.0,17.0,91,0.00,,,0.00,meteohub,2013-02-01 09:04:00,
2013-02-01 04:09:00,16.5,14.4,29.70,West,277,8.0,20.0,91,0.00,,,0.00,meteohub,2013-02-01 09:09:00,
2013-02-01 04:14:00,16.5,14.2,29.70,West,278,10.0,20.0,90,0.00,,,0.00,meteohub,2013-02-01 09:14:00,
2013-02-01 04:19:00,16.5,14.2,29.70,WSW,255,14.0,17.0,90,0.00,,,0.00,meteohub,2013-02-01 09:19:00,
2013-02-01 04:24:00,16.5,14.2,29.70,WNW,302,12.0,20.0,90,0.00,,,0.00,meteohub,2013-02-01 09:24:00,
2013-02-01 04:29:00,16.3,14.0,29.71,West,265,11.0,20.0,90,0.00,,,0.00,meteohub,2013-02-01 09:29:00,
2013-02-01 04:34:00,16.3,14.0,29.71,West,263,13.0,20.0,90,0.00,,,0.00,meteohub,2013-02-01 09:34:00,
2013-02-01 04:39:00,16.2,13.8,29.71,WSW,254,14.0,20.0,90,0.00,,,0.00,meteohub,2013-02-01 09:39:00,
2013-02-01 04:44:00,16.2,13.8,29.71,WNW,293,20.0,23.0,90,0.00,,,0.00,meteohub,2013-02-01 09:44:00,
2013-02-01 04:49:00,15.8,13.5,29.71,West,261,16.0,23.0,90,0.00,,,0.00,meteohub,2013-02-01 09:49:00,
2013-02-01 04:54:00,15.8,13.6,29.71,WSW,257,11.0,24.0,91,0.00,,,0.00,meteohub,2013-02-01 09:54:00,
2013-02-01 04:59:00,16.2,13.8,29.71,West,273,11.0,24.0,90,0.00,,,0.00,meteohub,2013-02-01 09:59:00,
2013-02-01 05:04:00,16.2,13.5,29.72,West,277,7.0,24.0,89,0.00,,,0.00,meteohub,2013-02-01 10:04:00,
2013-02-01 05:09:00,16.3,13.6,29.72,West,271,10.0,20.0,89,0.00,,,0.00,meteohub,2013-02-01 10:09:00,
2013-02-01 05:14:00,16.3,13.6,29.72,WNW,286,14.0,20.0,89,0.00,,,0.00,meteohub,2013-02-01 10:14:00,
2013-02-01 05:19:00,16.3,13.6,29.73,WSW,251,9.0,20.0,89,0.00,,,0.00,meteohub,2013-02-01 10:19:00,
2013-02-01 05:24:00,16.3,14.0,29.72,West,269,8.0,20.0,90,0.00,,,0.00,meteohub,2013-02-01 10:24:00,
2013-02-01 05:29:00,16.3,13.6,29.73,WSW,258,6.0,17.0,89,0.00,,,0.00,meteohub,2013-02-01 10:29:00,
2013-02-01 05:34:00,16.5,13.6,29.73,WNW,296,13.0,16.0,88,0.00,,,0.00,meteohub,2013-02-01 10:34:00,
2013-02-01 05:39:00,16.5,13.3,29.73,WNW,286,6.0,21.0,87,0.00,,,0.00,meteohub,2013-02-01 10:39:00,
2013-02-01 05:44:00,16.3,12.9,29.73,WSW,250,9.0,21.0,86,0.00,,,0.00,meteohub,2013-02-01 10:44:00,
2013-02-01 05:49:00,16.5,13.1,29.73,WSW,258,9.0,21.0,86,0.00,,,0.00,meteohub,2013-02-01 10:49:00,
2013-02-01 05:54:00,16.3,12.6,29.74,West,272,11.0,20.0,85,0.00,,,0.00,meteohub,2013-02-01 10:54:00,
2013-02-01 05:59:00,16.3,12.4,29.74,West,269,9.0,20.0,84,0.00,,,0.00,meteohub,2013-02-01 10:59:00,
2013-02-01 06:04:00,16.3,12.4,29.74,West,271,10.0,20.0,84,0.00,,,0.00,meteohub,2013-02-01 11:04:00,
2013-02-01 06:09:00,16.3,12.0,29.74,West,269,9.0,22.0,83,0.00,,,0.00,meteohub,2013-02-01 11:09:00,
2013-02-01 06:14:00,16.3,12.0,29.75,West,264,5.0,22.0,83,0.00,,,0.00,meteohub,2013-02-01 11:14:00,
2013-02-01 06:19:00,16.3,12.0,29.75,West,279,14.0,22.0,83,0.00,,,0.00,meteohub,2013-02-01 11:19:00,
2013-02-01 06:24:00,16.3,12.0,29.75,West,281,8.0,20.0,83,0.00,,,0.00,meteohub,2013-02-01 11:24:00,
2013-02-01 06:29:00,16.2,11.8,29.75,West,262,7.0,17.0,83,0.00,,,0.00,meteohub,2013-02-01 11:29:00,
2013-02-01 06:34:00,16.2,11.3,29.76,WNW,286,8.0,15.0,81,0.00,,,0.00,meteohub,2013-02-01 11:34:00,
2013-02-01 06:39:00,16.2,11.1,29.76,West,279,10.0,15.0,80,0.00,,,0.00,meteohub,2013-02-01 11:39:00,
2013-02-01 06:44:00,16.3,11.3,29.77,WSW,242,17.0,18.0,80,0.00,,,0.00,meteohub,2013-02-01 11:44:00,
2013-02-01 06:49:00,16.3,10.8,29.77,West,269,9.0,19.0,78,0.00,,,0.00,meteohub,2013-02-01 11:49:00,
2013-02-01 06:55:00,16.2,10.6,29.77,WSW,242,11.0,24.0,78,0.00,,,0.00,meteohub,2013-02-01 11:55:00,
2013-02-01 07:00:00,16.2,10.6,29.78,WSW,245,11.0,24.0,78,0.00,,,0.00,meteohub,2013-02-01 12:00:00,
2013-02-01 07:05:00,16.2,10.6,29.78,West,273,14.0,24.0,78,0.00,,,0.00,meteohub,2013-02-01 12:05:00,
2013-02-01 07:10:00,16.2,10.6,29.78,West,276,7.0,24.0,78,0.00,,,0.00,meteohub,2013-02-01 12:10:00,
2013-02-01 07:15:00,16.2,10.6,29.79,West,275,14.0,24.0,78,0.00,,,0.00,meteohub,2013-02-01 12:15:00,
2013-02-01 07:20:00,16.2,10.2,29.79,West,277,9.0,21.0,77,0.00,,,0.00,meteohub,2013-02-01 12:20:00,
2013-02-01 07:25:00,16.2,10.2,29.79,WSW,254,9.0,21.0,77,0.00,,,0.00,meteohub,2013-02-01 12:25:00,
2013-02-01 07:30:00,16.2,10.2,29.80,WNW,287,8.0,18.0,77,0.00,,,0.00,meteohub,2013-02-01 12:30:00,
2013-02-01 07:35:00,16.0,10.0,29.81,West,268,9.0,17.0,77,0.00,,,0.00,meteohub,2013-02-01 12:35:00,
2013-02-01 07:40:00,16.2,9.9,29.81,West,265,7.0,16.0,76,0.00,,,0.00,meteohub,2013-02-01 12:40:00,
2013-02-01 07:45:00,16.3,10.0,29.81,West,273,6.0,18.0,76,0.00,,,0.00,meteohub,2013-02-01 12:45:00,
2013-02-01 07:50:00,16.3,10.4,29.81,West,275,9.0,18.0,77,0.00,,,0.00,meteohub,2013-02-01 12:50:00,
2013-02-01 07:55:00,16.3,10.4,29.82,West,274,11.0,17.0,77,0.00,,,0.00,meteohub,2013-02-01 12:55:00,
2013-02-01 08:00:00,16.3,10.4,29.83,West,275,7.0,17.0,77,0.00,,,0.00,meteohub,2013-02-01 13:00:00,
2013-02-01 08:05:00,16.2,10.2,29.83,NW,306,8.0,17.0,77,0.00,,,0.00,meteohub,2013-02-01 13:05:00,
2013-02-01 08:10:00,16.2,10.2,29.83,WSW,244,13.0,17.0,77,0.00,,,0.00,meteohub,2013-02-01 13:10:00,
2013-02-01 08:15:00,16.2,9.9,29.83,West,277,12.0,19.0,76,0.00,,,0.00,meteohub,2013-02-01 13:15:00,
2013-02-01 08:20:00,16.2,9.9,29.83,West,265,9.0,19.0,76,0.00,,,0.00,meteohub,2013-02-01 13:20:00,
2013-02-01 08:25:00,16.2,9.7,29.84,West,267,9.0,19.0,75,0.00,,,0.00,meteohub,2013-02-01 13:25:00,
2013-02-01 08:30:00,16.2,10.2,29.84,West,261,9.0,22.0,77,0.00,,,0.00,meteohub,2013-02-01 13:30:00,
2013-02-01 08:35:00,16.2,9.9,29.84,WSW,255,8.0,22.0,76,0.00,,,0.00,meteohub,2013-02-01 13:35:00,
2013-02-01 08:40:00,16.2,9.7,29.85,WNW,295,7.0,22.0,75,0.00,,,0.00,meteohub,2013-02-01 13:40:00,
2013-02-01 08:45:00,16.3,9.9,29.85,West,269,8.0,22.0,75,0.00,,,0.00,meteohub,2013-02-01 13:45:00,
2013-02-01 08:50:00,16.3,9.5,29.85,WSW,244,15.0,22.0,74,0.00,,,0.00,meteohub,2013-02-01 13:50:00,
2013-02-01 08:55:00,16.3,9.1,29.85,West,269,17.0,23.0,73,0.00,,,0.00,meteohub,2013-02-01 13:55:00,
2013-02-01 09:00:00,16.3,9.0,29.85,West,260,22.0,23.0,72,0.00,,,0.00,meteohub,2013-02-01 14:00:00,
2013-02-01 09:05:00,16.5,9.1,29.85,WNW,292,16.0,23.0,72,0.00,,,0.00,meteohub,2013-02-01 14:05:00,
2013-02-01 09:10:00,16.5,8.8,29.85,West,279,17.0,23.0,71,0.00,,,0.00,meteohub,2013-02-01 14:10:00,
2013-02-01 09:15:00,16.5,8.8,29.85,SW,236,17.0,23.0,71,0.00,,,0.00,meteohub,2013-02-01 14:15:00,
2013-02-01 09:20:00,16.7,9.0,29.86,WSW,258,14.0,22.0,71,0.00,,,0.00,meteohub,2013-02-01 14:20:00,
2013-02-01 09:25:00,16.9,9.1,29.86,West,277,11.0,22.0,71,0.00,,,0.00,meteohub,2013-02-01 14:25:00,
2013-02-01 09:30:00,16.9,9.5,29.86,WSW,252,10.0,22.0,72,0.00,,,0.00,meteohub,2013-02-01 14:30:00,
2013-02-01 09:35:00,16.7,9.5,29.86,West,265,8.0,22.0,73,0.00,,,0.00,meteohub,2013-02-01 14:35:00,
2013-02-01 09:40:00,16.9,10.4,29.86,West,264,10.0,22.0,75,0.00,,,0.00,meteohub,2013-02-01 14:40:00,
2013-02-01 09:45:00,16.9,10.4,29.86,West,280,13.0,20.0,75,0.00,,,0.00,meteohub,2013-02-01 14:45:00,
2013-02-01 09:50:00,17.1,10.8,29.86,West,277,9.0,21.0,76,0.00,,,0.00,meteohub,2013-02-01 14:50:00,
2013-02-01 09:55:00,17.2,10.8,29.87,WSW,239,11.0,28.0,75,0.00,,,0.00,meteohub,2013-02-01 14:55:00,
2013-02-01 10:00:00,17.4,10.2,29.87,West,268,10.0,28.0,73,0.00,,,0.00,meteohub,2013-02-01 15:00:00,
2013-02-01 10:05:00,17.6,10.0,29.87,WSW,257,11.0,28.0,72,0.00,,,0.00,meteohub,2013-02-01 15:05:00,
2013-02-01 10:10:00,17.6,9.1,29.88,West,275,15.0,20.0,69,0.00,,,0.00,meteohub,2013-02-01 15:10:00,
2013-02-01 10:16:00,17.4,8.4,29.88,WSW,240,20.0,24.0,67,0.00,,,0.00,meteohub,2013-02-01 15:16:00,
2013-02-01 10:21:00,17.6,8.2,29.87,West,276,18.0,24.0,66,0.00,,,0.00,meteohub,2013-02-01 15:21:00,
2013-02-01 10:26:00,17.6,8.6,29.88,West,261,9.0,26.0,67,0.00,,,0.00,meteohub,2013-02-01 15:26:00,
2013-02-01 10:31:00,17.6,8.6,29.88,WSW,251,10.0,26.0,67,0.00,,,0.00,meteohub,2013-02-01 15:31:00,
2013-02-01 10:36:00,17.8,8.6,29.89,WSW,253,12.0,25.0,67,0.00,,,0.00,meteohub,2013-02-01 15:36:00,
2013-02-01 10:41:00,17.2,8.8,29.90,West,263,14.0,26.0,69,0.00,,,0.00,meteohub,2013-02-01 15:41:00,
2013-02-01 10:46:00,17.2,8.8,29.90,West,273,11.0,26.0,69,0.00,,,0.00,meteohub,2013-02-01 15:46:00,
2013-02-01 10:51:00,17.2,8.4,29.90,West,259,8.0,26.0,68,0.00,,,0.00,meteohub,2013-02-01 15:51:00,
2013-02-01 10:56:00,17.2,8.4,29.90,West,279,14.0,21.0,68,0.00,,,0.00,meteohub,2013-02-01 15:56:00,
2013-02-01 11:01:00,17.2,8.4,29.90,West,259,10.0,20.0,68,0.00,,,0.00,meteohub,2013-02-01 16:01:00,
2013-02-01 11:06:00,17.6,8.8,29.90,SW,225,8.0,20.0,68,0.00,,,0.00,meteohub,2013-02-01 16:06:00,
2013-02-01 11:11:00,17.4,9.0,29.91,West,275,11.0,19.0,69,0.00,,,0.00,meteohub,2013-02-01 16:11:00,
2013-02-01 11:16:00,17.1,9.3,29.90,West,272,12.0,21.0,71,0.00,,,0.00,meteohub,2013-02-01 16:16:00,
2013-02-01 11:21:00,16.9,9.5,29.91,WNW,288,9.0,22.0,72,0.00,,,0.00,meteohub,2013-02-01 16:21:00,
2013-02-01 11:26:00,16.9,9.7,29.91,WSW,257,19.0,22.0,73,0.00,,,0.00,meteohub,2013-02-01 16:26:00,
2013-02-01 11:31:00,17.1,9.9,29.91,WNW,285,13.0,25.0,73,0.00,,,0.00,meteohub,2013-02-01 16:31:00,
2013-02-01 11:36:00,17.2,10.0,29.91,WNW,285,13.0,25.0,73,0.00,,,0.00,meteohub,2013-02-01 16:36:00,
2013-02-01 11:41:00,19.0,11.5,29.91,West,262,17.0,25.0,72,0.00,,,0.00,meteohub,2013-02-01 16:41:00,
2013-02-01 11:46:00,18.9,11.7,29.92,WNW,294,7.0,21.0,73,0.00,,,0.00,meteohub,2013-02-01 16:46:00,
2013-02-01 11:51:00,18.9,11.3,29.91,SW,236,2.0,18.0,72,0.00,,,0.00,meteohub,2013-02-01 16:51:00,
2013-02-01 11:56:00,18.7,11.5,29.91,West,277,4.0,17.0,73,0.00,,,0.00,meteohub,2013-02-01 16:56:00,
2013-02-01 12:01:00,18.3,11.5,29.91,North,10,4.0,11.0,74,0.00,,,0.00,meteohub,2013-02-01 17:01:00,
2013-02-01 12:06:00,18.7,11.8,29.91,WNW,283,4.0,11.0,74,0.00,,,0.00,meteohub,2013-02-01 17:06:00,
2013-02-01 12:11:00,18.9,11.7,29.92,WNW,296,4.0,13.0,73,0.00,,,0.00,meteohub,2013-02-01 17:11:00,
2013-02-01 12:16:00,18.7,11.1,29.91,WNW,302,8.0,13.0,72,0.00,,,0.00,meteohub,2013-02-01 17:16:00,
2013-02-01 12:21:00,18.7,11.5,29.91,WNW,290,1.0,13.0,73,0.00,,,0.00,meteohub,2013-02-01 17:21:00,
2013-02-01 12:26:00,18.9,12.2,29.91,West,265,4.0,13.0,75,0.00,,,0.00,meteohub,2013-02-01 17:26:00,
2013-02-01 12:31:00,18.9,12.2,29.92,WNW,282,0.0,13.0,75,0.00,,,0.00,meteohub,2013-02-01 17:31:00,
2013-02-01 12:36:00,18.9,12.2,29.92,West,265,4.0,13.0,75,0.00,,,0.00,meteohub,2013-02-01 17:36:00,
2013-02-01 12:41:00,19.0,11.8,29.92,NNW,340,4.0,10.0,73,0.00,,,0.00,meteohub,2013-02-01 17:41:00,
2013-02-01 12:46:00,19.0,11.5,29.92,WNW,290,6.0,10.0,72,0.00,,,0.00,meteohub,2013-02-01 17:46:00,
2013-02-01 12:51:00,19.2,11.3,29.92,WNW,300,1.0,10.0,71,0.00,,,0.00,meteohub,2013-02-01 17:51:00,
2013-02-01 12:56:00,19.2,11.7,29.91,SW,215,2.0,10.0,72,0.00,,,0.00,meteohub,2013-02-01 17:56:00,
2013-02-01 13:01:00,19.0,11.8,29.92,West,267,5.0,10.0,73,0.00,,,0.00,meteohub,2013-02-01 18:01:00,
2013-02-01 13:06:00,19.0,11.8,29.92,WNW,292,3.0,12.0,73,0.00,,,0.00,meteohub,2013-02-01 18:06:00,
2013-02-01 13:11:00,19.0,12.4,29.92,West,267,0.0,12.0,75,0.00,,,0.00,meteohub,2013-02-01 18:11:00,
2013-02-01 13:16:00,19.2,12.6,29.92,North,355,0.0,9.0,75,0.00,,,0.00,meteohub,2013-02-01 18:16:00,
2013-02-01 13:21:00,19.8,13.1,29.92,SSE,159,0.0,9.0,75,0.00,,,0.00,meteohub,2013-02-01 18:21:00,
2013-02-01 13:26:00,19.8,13.1,29.92,WNW,301,4.0,5.0,75,0.00,,,0.00,meteohub,2013-02-01 18:26:00,
2013-02-01 13:31:00,19.6,12.9,29.93,NW,321,1.0,5.0,75,0.00,,,0.00,meteohub,2013-02-01 18:31:00,
2013-02-01 13:36:00,19.9,12.9,29.93,NW,311,4.0,8.0,74,0.00,,,0.00,meteohub,2013-02-01 18:36:00,
2013-02-01 13:41:00,20.5,13.3,29.93,NE,37,5.0,8.0,73,0.00,,,0.00,meteohub,2013-02-01 18:41:00,
2013-02-01 13:46:00,20.1,12.2,29.93,NE,53,3.0,9.0,71,0.00,,,0.00,meteohub,2013-02-01 18:46:00,
2013-02-01 13:51:00,19.6,12.0,29.93,WNW,297,0.0,9.0,72,0.00,,,0.00,meteohub,2013-02-01 18:51:00,
2013-02-01 13:56:00,19.0,11.8,29.93,NW,305,2.0,9.0,73,0.00,,,0.00,meteohub,2013-02-01 18:56:00,
2013-02-01 14:01:00,18.5,11.8,29.93,West,273,0.0,8.0,75,0.00,,,0.00,meteohub,2013-02-01 19:01:00,
2013-02-01 14:06:00,18.9,11.7,29.94,West,278,0.0,10.0,73,0.00,,,0.00,meteohub,2013-02-01 19:06:00,
2013-02-01 14:11:00,19.9,12.0,29.94,NW,323,2.0,10.0,71,0.00,,,0.00,meteohub,2013-02-01 19:11:00,
2013-02-01 14:16:00,20.5,11.7,29.94,East,82,0.0,8.0,68,0.00,,,0.00,meteohub,2013-02-01 19:16:00,
2013-02-01 14:21:00,20.7,11.8,29.94,SW,231,5.0,9.0,68,0.00,,,0.00,meteohub,2013-02-01 19:21:00,
2013-02-01 14:26:00,19.9,10.8,29.94,WNW,284,1.0,10.0,67,0.00,,,0.00,meteohub,2013-02-01 19:26:00,
2013-02-01 14:31:00,19.9,10.4,29.94,NW,317,2.0,10.0,66,0.00,,,0.00,meteohub,2013-02-01 19:31:00,
2013-02-01 14:36:00,20.3,9.0,29.94,WNW,294,4.0,11.0,61,0.00,,,0.00,meteohub,2013-02-01 19:36:00,
2013-02-01 14:41:00,20.7,9.3,29.95,SSE,161,2.0,13.0,61,0.00,,,0.00,meteohub,2013-02-01 19:41:00,
2013-02-01 14:46:00,20.7,8.6,29.95,NE,46,1.0,13.0,59,0.00,,,0.00,meteohub,2013-02-01 19:46:00,
2013-02-01 14:52:00,20.8,8.8,29.95,ENE,78,2.0,15.0,59,0.00,,,0.00,meteohub,2013-02-01 19:52:00,
2013-02-01 14:57:00,21.6,9.1,29.95,North,355,0.0,15.0,58,0.00,,,0.00,meteohub,2013-02-01 19:57:00,
2013-02-01 15:02:00,21.9,9.0,29.96,NNE,13,5.0,15.0,57,0.00,,,0.00,meteohub,2013-02-01 20:02:00,
2013-02-01 15:07:00,21.7,8.8,29.96,WNW,303,2.0,11.0,57,0.00,,,0.00,meteohub,2013-02-01 20:07:00,
2013-02-01 15:12:00,21.4,8.6,29.96,NW,318,1.0,11.0,57,0.00,,,0.00,meteohub,2013-02-01 20:12:00,
2013-02-01 15:17:00,20.3,7.5,29.97,West,268,2.0,13.0,57,0.00,,,0.00,meteohub,2013-02-01 20:17:00,
2013-02-01 15:22:00,19.8,7.7,29.96,West,278,4.0,13.0,59,0.00,,,0.00,meteohub,2013-02-01 20:22:00,
2013-02-01 15:27:00,19.2,7.7,29.97,SW,233,3.0,13.0,60,0.00,,,0.00,meteohub,2013-02-01 20:27:00,
2013-02-01 15:32:00,19.0,7.5,29.98,NE,53,6.0,9.0,60,0.00,,,0.00,meteohub,2013-02-01 20:32:00,
2013-02-01 15:37:00,18.7,7.2,29.98,NE,34,0.0,9.0,60,0.00,,,0.00,meteohub,2013-02-01 20:37:00,
2013-02-01 15:42:00,18.5,7.3,29.98,East,79,0.0,7.0,61,0.00,,,0.00,meteohub,2013-02-01 20:42:00,
2013-02-01 15:47:00,18.3,7.5,29.98,NE,37,1.0,7.0,62,0.00,,,0.00,meteohub,2013-02-01 20:47:00,
2013-02-01 15:52:00,18.3,7.5,29.99,ENE,71,0.0,7.0,62,0.00,,,0.00,meteohub,2013-02-01 20:52:00,
2013-02-01 15:57:00,18.1,7.3,29.99,NW,308,5.0,7.0,62,0.00,,,0.00,meteohub,2013-02-01 20:57:00,
2013-02-01 16:02:00,18.0,6.8,29.99,NW,306,5.0,12.0,61,0.00,,,0.00,meteohub,2013-02-01 21:02:00,
2013-02-01 16:07:00,18.0,7.2,29.99,WSW,243,2.0,12.0,62,0.00,,,0.00,meteohub,2013-02-01 21:07:00,
2013-02-01 16:12:00,18.0,7.5,30.00,SSW,210,1.0,12.0,63,0.00,,,0.00,meteohub,2013-02-01 21:12:00,
2013-02-01 16:17:00,18.0,7.9,30.00,WNW,298,4.0,10.0,64,0.00,,,0.00,meteohub,2013-02-01 21:17:00,
2013-02-01 16:22:00,17.8,7.7,30.00,NW,306,5.0,10.0,64,0.00,,,0.00,meteohub,2013-02-01 21:22:00,
2013-02-01 16:27:00,17.8,7.3,30.00,NE,56,1.0,15.0,63,0.00,,,0.00,meteohub,2013-02-01 21:27:00,
2013-02-01 16:32:00,17.8,7.7,30.00,NW,309,2.0,15.0,64,0.00,,,0.00,meteohub,2013-02-01 21:32:00,
2013-02-01 16:37:00,17.8,7.3,30.01,East,83,3.0,15.0,63,0.00,,,0.00,meteohub,2013-02-01 21:37:00,
2013-02-01 16:42:00,17.8,6.3,30.01,SE,133,6.0,7.0,60,0.00,,,0.00,meteohub,2013-02-01 21:42:00,
2013-02-01 16:47:00,17.6,6.1,30.01,NNE,32,1.0,10.0,60,0.00,,,0.00,meteohub,2013-02-01 21:47:00,
2013-02-01 16:52:00,17.4,5.5,30.01,NNE,21,3.0,10.0,59,0.00,,,0.00,meteohub,2013-02-01 21:52:00,
2013-02-01 16:57:00,17.2,5.4,30.02,SSW,205,3.0,11.0,59,0.00,,,0.00,meteohub,2013-02-01 21:57:00,
2013-02-01 17:02:00,17.2,5.4,30.03,NNW,330,10.0,11.0,59,0.00,,,0.00,meteohub,2013-02-01 22:02:00,
2013-02-01 17:07:00,17.1,5.5,30.03,ESE,119,1.0,13.0,60,0.00,,,0.00,meteohub,2013-02-01 22:07:00,
2013-02-01 17:12:00,17.1,5.9,30.03,North,355,2.0,15.0,61,0.00,,,0.00,meteohub,2013-02-01 22:12:00,
2013-02-01 17:17:00,16.9,5.7,30.04,ENE,61,0.0,15.0,61,0.00,,,0.00,meteohub,2013-02-01 22:17:00,
2013-02-01 17:22:00,16.9,6.1,30.04,WNW,282,6.0,15.0,62,0.00,,,0.00,meteohub,2013-02-01 22:22:00,
2013-02-01 17:27:00,16.7,5.5,30.04,North,0,1.0,9.0,61,0.00,,,0.00,meteohub,2013-02-01 22:27:00,
2013-02-01 17:32:00,16.5,5.7,30.05,North,5,4.0,8.0,62,0.00,,,0.00,meteohub,2013-02-01 22:32:00,
2013-02-01 17:37:00,16.5,6.1,30.05,NW,323,2.0,14.0,63,0.00,,,0.00,meteohub,2013-02-01 22:37:00,
2013-02-01 17:42:00,16.3,5.9,30.05,West,263,1.0,14.0,63,0.00,,,0.00,meteohub,2013-02-01 22:42:00,
2013-02-01 17:47:00,16.2,5.7,30.06,SSE,156,1.0,11.0,63,0.00,,,0.00,meteohub,2013-02-01 22:47:00,
2013-02-01 17:52:00,16.2,5.7,30.06,NNW,328,0.0,10.0,63,0.00,,,0.00,meteohub,2013-02-01 22:52:00,
2013-02-01 17:57:00,15.8,5.4,30.06,WNW,290,2.0,10.0,63,0.00,,,0.00,meteohub,2013-02-01 22:57:00,
2013-02-01 18:02:00,15.8,5.4,30.06,East,93,1.0,10.0,63,0.00,,,0.00,meteohub,2013-02-01 23:02:00,
2013-02-01 18:07:00,15.8,5.4,30.06,WNW,294,1.0,11.0,63,0.00,,,0.00,meteohub,2013-02-01 23:07:00,
2013-02-01 18:12:00,15.8,5.7,30.06,WNW,302,7.0,11.0,64,0.00,,,0.00,meteohub,2013-02-01 23:12:00,
2013-02-01 18:17:00,15.8,5.7,30.07,SSW,212,1.0,13.0,64,0.00,,,0.00,meteohub,2013-02-01 23:17:00,
2013-02-01 18:22:00,15.8,5.7,30.07,WNW,286,3.0,13.0,64,0.00,,,0.00,meteohub,2013-02-01 23:22:00,
2013-02-01 18:27:00,16.0,5.9,30.08,WSW,247,9.0,17.0,64,0.00,,,0.00,meteohub,2013-02-01 23:27:00,
2013-02-01 18:32:00,16.0,5.5,30.08,NW,314,9.0,17.0,63,0.00,,,0.00,meteohub,2013-02-01 23:32:00,
2013-02-01 18:37:00,15.8,5.2,30.08,WNW,296,2.0,17.0,62,0.00,,,0.00,meteohub,2013-02-01 23:37:00,
2013-02-01 18:42:00,15.8,5.4,30.09,West,259,3.0,12.0,63,0.00,,,0.00,meteohub,2013-02-01 23:42:00,
2013-02-01 18:47:00,15.8,5.4,30.09,WNW,282,0.0,12.0,63,0.00,,,0.00,meteohub,2013-02-01 23:47:00,
2013-02-01 18:52:00,15.6,5.5,30.09,WSW,254,8.0,11.0,64,0.00,,,0.00,meteohub,2013-02-01 23:52:00,
2013-02-01 18:57:00,15.6,5.9,30.09,NW,321,7.0,11.0,65,0.00,,,0.00,meteohub,2013-02-01 23:57:00,
2013-02-01 19:02:00,15.4,5.7,30.09,NW,326,2.0,10.0,65,0.00,,,0.00,meteohub,2013-02-02 00:02:00,
2013-02-01 19:07:00,15.4,5.7,30.10,WSW,248,3.0,13.0,65,0.00,,,0.00,meteohub,2013-02-02 00:07:00,
2013-02-01 19:12:00,15.3,5.5,30.10,NW,325,4.0,13.0,65,0.00,,,0.00,meteohub,2013-02-02 00:12:00,
2013-02-01 19:17:00,15.3,5.5,30.10,NW,322,1.0,13.0,65,0.00,,,0.00,meteohub,2013-02-02 00:17:00,
2013-02-01 19:22:00,15.1,5.4,30.10,SW,234,1.0,12.0,65,0.00,,,0.00,meteohub,2013-02-02 00:22:00,
2013-02-01 19:27:00,15.1,5.4,30.10,WNW,298,3.0,12.0,65,0.00,,,0.00,meteohub,2013-02-02 00:27:00,
2013-02-01 19:32:00,14.7,5.4,30.11,NNE,19,6.0,12.0,66,0.00,,,0.00,meteohub,2013-02-02 00:32:00,
2013-02-01 19:37:00,14.7,5.4,30.11,NNW,328,6.0,11.0,66,0.00,,,0.00,meteohub,2013-02-02 00:37:00,
2013-02-01 19:42:00,14.5,5.5,30.11,NW,325,5.0,15.0,67,0.00,,,0.00,meteohub,2013-02-02 00:42:00,
2013-02-01 19:47:00,14.4,5.4,30.12,WNW,298,5.0,15.0,67,0.00,,,0.00,meteohub,2013-02-02 00:47:00,
2013-02-01 19:52:00,14.4,5.7,30.12,WNW,289,2.0,15.0,68,0.00,,,0.00,meteohub,2013-02-02 00:52:00,
2013-02-01 19:57:00,14.4,5.7,30.12,NNW,336,3.0,9.0,68,0.00,,,0.00,meteohub,2013-02-02 00:57:00,
2013-02-01 20:02:00,14.2,5.2,30.12,WNW,296,4.0,11.0,67,0.00,,,0.00,meteohub,2013-02-02 01:02:00,
2013-02-01 20:07:00,14.2,5.2,30.13,WNW,285,3.0,11.0,67,0.00,,,0.00,meteohub,2013-02-02 01:07:00,
2013-02-01 20:12:00,14.2,5.2,30.13,NW,311,0.0,11.0,67,0.00,,,0.00,meteohub,2013-02-02 01:12:00,
2013-02-01 20:17:00,13.5,3.9,30.13,West,273,7.0,11.0,65,0.00,,,0.00,meteohub,2013-02-02 01:17:00,
2013-02-01 20:22:00,13.3,3.7,30.13,West,277,6.0,11.0,65,0.00,,,0.00,meteohub,2013-02-02 01:22:00,
2013-02-01 20:28:00,13.5,3.6,30.13,West,279,12.0,12.0,64,0.00,,,0.00,meteohub,2013-02-02 01:28:00,
2013-02-01 20:33:00,13.3,3.4,30.13,West,276,7.0,19.0,64,0.00,,,0.00,meteohub,2013-02-02 01:33:00,
2013-02-01 20:38:00,13.3,3.0,30.13,NW,304,7.0,19.0,63,0.00,,,0.00,meteohub,2013-02-02 01:38:00,
2013-02-01 20:45:00,13.3,3.0,30.14,West,267,10.0,19.0,63,0.00,,,0.00,meteohub,2013-02-02 01:45:00,
2013-02-01 20:50:00,12.9,3.4,30.14,West,260,9.0,21.0,65,0.00,,,0.00,meteohub,2013-02-02 01:50:00,
2013-02-01 20:55:00,12.9,3.4,30.14,West,267,7.0,21.0,65,0.00,,,0.00,meteohub,2013-02-02 01:55:00,
2013-02-01 21:00:00,12.9,3.7,30.15,WSW,239,9.0,18.0,66,0.00,,,0.00,meteohub,2013-02-02 02:00:00,
2013-02-01 21:05:00,12.9,3.7,30.15,WNW,292,8.0,16.0,66,0.00,,,0.00,meteohub,2013-02-02 02:05:00,
2013-02-01 21:10:00,12.9,4.1,30.15,WSW,251,6.0,16.0,67,0.00,,,0.00,meteohub,2013-02-02 02:10:00,
2013-02-01 21:15:00,12.9,4.3,30.15,WSW,244,10.0,16.0,68,0.00,,,0.00,meteohub,2013-02-02 02:15:00,
2013-02-01 21:20:00,12.7,4.5,30.16,West,273,5.0,16.0,69,0.00,,,0.00,meteohub,2013-02-02 02:20:00,
2013-02-01 21:25:00,12.7,4.8,30.16,WSW,254,5.0,16.0,70,0.00,,,0.00,meteohub,2013-02-02 02:25:00,
2013-02-01 21:30:00,12.7,4.8,30.16,West,267,5.0,13.0,70,0.00,,,0.00,meteohub,2013-02-02 02:30:00,
2013-02-01 21:35:00,12.7,5.2,30.16,West,273,4.0,12.0,71,0.00,,,0.00,meteohub,2013-02-02 02:35:00,
2013-02-01 21:40:00,12.6,5.5,30.16,West,261,4.0,12.0,73,0.00,,,0.00,meteohub,2013-02-02 02:40:00,
2013-02-01 21:45:00,12.4,5.7,30.16,WSW,257,7.0,15.0,74,0.00,,,0.00,meteohub,2013-02-02 02:45:00,
2013-02-01 21:50:00,12.4,5.7,30.17,West,275,10.0,15.0,74,0.00,,,0.00,meteohub,2013-02-02 02:50:00,
2013-02-01 21:55:00,12.4,5.7,30.17,West,273,3.0,15.0,74,0.00,,,0.00,meteohub,2013-02-02 02:55:00,
2013-02-01 22:00:00,12.4,5.7,30.17,WNW,295,11.0,13.0,74,0.00,,,0.00,meteohub,2013-02-02 03:00:00,
2013-02-01 22:05:00,12.4,5.7,30.17,West,279,7.0,15.0,74,0.00,,,0.00,meteohub,2013-02-02 03:05:00,
2013-02-01 22:10:00,12.4,5.4,30.17,West,261,7.0,15.0,73,0.00,,,0.00,meteohub,2013-02-02 03:10:00,
2013-02-01 22:15:00,12.2,5.2,30.17,WNW,286,11.0,15.0,73,0.00,,,0.00,meteohub,2013-02-02 03:15:00,
2013-02-01 22:20:00,12.0,5.0,30.18,West,275,10.0,14.0,73,0.00,,,0.00,meteohub,2013-02-02 03:20:00,
2013-02-01 22:25:00,12.0,5.0,30.17,West,265,8.0,14.0,73,0.00,,,0.00,meteohub,2013-02-02 03:25:00,
2013-02-01 22:30:00,11.8,4.8,30.18,West,276,7.0,15.0,73,0.00,,,0.00,meteohub,2013-02-02 03:30:00,
2013-02-01 22:35:00,11.8,5.2,30.18,West,277,3.0,15.0,74,0.00,,,0.00,meteohub,2013-02-02 03:35:00,
2013-02-01 22:40:00,11.8,5.5,30.18,West,271,5.0,15.0,75,0.00,,,0.00,meteohub,2013-02-02 03:40:00,
2013-02-01 22:45:00,11.8,5.5,30.19,West,262,6.0,13.0,75,0.00,,,0.00,meteohub,2013-02-02 03:45:00,
2013-02-01 22:50:00,11.7,5.5,30.19,West,268,9.0,19.0,76,0.00,,,0.00,meteohub,2013-02-02 03:50:00,
2013-02-01 22:55:00,11.5,5.7,30.19,WSW,255,11.0,19.0,77,0.00,,,0.00,meteohub,2013-02-02 03:55:00,
2013-02-01 23:00:00,11.3,6.1,30.19,West,279,6.0,19.0,79,0.00,,,0.00,meteohub,2013-02-02 04:00:00,
2013-02-01 23:05:00,11.1,6.4,30.19,West,276,6.0,15.0,81,0.00,,,0.00,meteohub,2013-02-02 04:05:00,
2013-02-01 23:10:00,11.1,7.0,30.19,WNW,283,13.0,16.0,83,0.00,,,0.00,meteohub,2013-02-02 04:10:00,
2013-02-01 23:15:00,11.1,7.2,30.20,West,267,5.0,16.0,84,0.00,,,0.00,meteohub,2013-02-02 04:15:00,
2013-02-01 23:20:00,11.1,7.2,30.20,WNW,283,4.0,16.0,84,0.00,,,0.00,meteohub,2013-02-02 04:20:00,
2013-02-01 23:25:00,11.3,7.2,30.20,West,278,6.0,15.0,83,0.00,,,0.00,meteohub,2013-02-02 04:25:00,
2013-02-01 23:31:00,12.0,8.1,30.20,NW,304,2.0,11.0,84,0.00,,,0.00,meteohub,2013-02-02 04:31:00,
2013-02-01 23:35:00,12.0,7.5,30.20,NNW,329,3.0,11.0,82,0.00,,,0.00,meteohub,2013-02-02 04:35:00,
2013-02-01 23:40:00,11.8,7.2,30.20,West,260,3.0,11.0,81,0.00,,,0.00,meteohub,2013-02-02 04:40:00,
2013-02-01 23:46:00,11.8,6.8,30.20,West,279,1.0,11.0,80,0.00,,,0.00,meteohub,2013-02-02 04:46:00,
2013-02-01 23:51:00,11.7,6.6,30.20,WSW,251,0.0,7.0,80,0.00,,,0.00,meteohub,2013-02-02 04:51:00,
2013-02-01 23:56:00,11.7,6.1,30.21,NW,311,4.0,7.0,78,0.00,,,0.00,meteohub,2013-02-02 04:56:00,